sensor_id;sensor_type;location;lat;lon;timestamp;P1;durP1;ratioP1;P2;durP2;ratioP2
6406;SDS011;3236;51.022;6.818;2023-05-10T00:01:25;34.10;;;14.68;;
6406;SDS011;3236;51.022;6.818;2023-05-10T00:03:52;33.65;;;14.45;;
6406;SDS011;3236;51.022;6.818;2023-05-10T00:06:19;39.08;;;16.10;;
6406;SDS011;3236;51.022;6.818;2023-05-10T00:08:47;39.70;;;15.32;;
6406;SDS011;3236;51.022;6.818;2023-05-10T00:11:14;37.88;;;14.10;;
6406;SDS011;3236;51.022;6.818;2023-05-10T00:13:41;38.58;;;15.20;;
6406;SDS011;3236;51.022;6.818;2023-05-10T00:16:08;38.67;;;16.17;;
6406;SDS011;3236;51.022;6.818;2023-05-10T00:18:36;40.17;;;15.77;;
6406;SDS011;3236;51.022;6.818;2023-05-10T00:21:04;41.75;;;16.42;;
6406;SDS011;3236;51.022;6.818;2023-05-10T00:23:33;40.38;;;14.48;;
6406;SDS011;3236;51.022;6.818;2023-05-10T00:26:00;44.05;;;16.60;;
6406;SDS011;3236;51.022;6.818;2023-05-10T00:28:30;45.63;;;16.55;;
6406;SDS011;3236;51.022;6.818;2023-05-10T00:30:57;45.13;;;16.15;;
6406;SDS011;3236;51.022;6.818;2023-05-10T00:33:27;49.03;;;16.27;;
6406;SDS011;3236;51.022;6.818;2023-05-10T00:35:55;40.08;;;16.73;;
6406;SDS011;3236;51.022;6.818;2023-05-10T00:38:22;39.03;;;16.30;;
6406;SDS011;3236;51.022;6.818;2023-05-10T00:40:49;41.53;;;15.40;;
6406;SDS011;3236;51.022;6.818;2023-05-10T00:43:16;33.90;;;14.75;;
6406;SDS011;3236;51.022;6.818;2023-05-10T00:45:44;40.55;;;16.75;;
6406;SDS011;3236;51.022;6.818;2023-05-10T00:48:11;39.83;;;15.68;;
6406;SDS011;3236;51.022;6.818;2023-05-10T00:50:38;41.15;;;15.13;;
6406;SDS011;3236;51.022;6.818;2023-05-10T00:53:07;38.83;;;15.43;;
6406;SDS011;3236;51.022;6.818;2023-05-10T00:55:35;33.70;;;13.93;;
6406;SDS011;3236;51.022;6.818;2023-05-10T00:58:02;39.67;;;14.90;;
6406;SDS011;3236;51.022;6.818;2023-05-10T01:00:30;38.10;;;14.98;;
6406;SDS011;3236;51.022;6.818;2023-05-10T01:02:59;36.88;;;15.50;;
6406;SDS011;3236;51.022;6.818;2023-05-10T01:05:26;38.40;;;15.00;;
6406;SDS011;3236;51.022;6.818;2023-05-10T01:07:54;40.08;;;15.95;;
6406;SDS011;3236;51.022;6.818;2023-05-10T01:10:23;41.53;;;15.68;;
6406;SDS011;3236;51.022;6.818;2023-05-10T01:12:50;30.63;;;12.07;;
6406;SDS011;3236;51.022;6.818;2023-05-10T01:15:18;34.30;;;14.23;;
6406;SDS011;3236;51.022;6.818;2023-05-10T01:17:46;34.17;;;13.57;;
6406;SDS011;3236;51.022;6.818;2023-05-10T01:20:17;36.92;;;13.18;;
6406;SDS011;3236;51.022;6.818;2023-05-10T01:22:59;32.05;;;11.65;;
6406;SDS011;3236;51.022;6.818;2023-05-10T01:26:07;37.60;;;13.30;;
6406;SDS011;3236;51.022;6.818;2023-05-10T01:34:42;16.88;;;8.70;;
6406;SDS011;3236;51.022;6.818;2023-05-10T01:37:16;18.48;;;8.60;;
6406;SDS011;3236;51.022;6.818;2023-05-10T01:39:49;18.70;;;8.55;;
6406;SDS011;3236;51.022;6.818;2023-05-10T01:44:49;20.25;;;8.95;;
6406;SDS011;3236;51.022;6.818;2023-05-10T01:47:25;21.33;;;10.10;;
6406;SDS011;3236;51.022;6.818;2023-05-10T01:49:58;16.85;;;8.60;;
6406;SDS011;3236;51.022;6.818;2023-05-10T01:52:30;23.70;;;10.13;;
6406;SDS011;3236;51.022;6.818;2023-05-10T01:55:04;26.08;;;10.18;;
6406;SDS011;3236;51.022;6.818;2023-05-10T01:57:35;21.38;;;10.63;;
6406;SDS011;3236;51.022;6.818;2023-05-10T02:00:06;27.02;;;10.02;;
6406;SDS011;3236;51.022;6.818;2023-05-10T02:02:37;27.90;;;11.55;;
6406;SDS011;3236;51.022;6.818;2023-05-10T02:05:09;28.88;;;11.32;;
6406;SDS011;3236;51.022;6.818;2023-05-10T02:07:39;24.58;;;11.77;;
6406;SDS011;3236;51.022;6.818;2023-05-10T02:10:09;24.58;;;10.70;;
6406;SDS011;3236;51.022;6.818;2023-05-10T02:12:37;27.58;;;11.80;;
6406;SDS011;3236;51.022;6.818;2023-05-10T02:15:09;30.17;;;11.55;;
6406;SDS011;3236;51.022;6.818;2023-05-10T02:17:40;33.15;;;11.85;;
6406;SDS011;3236;51.022;6.818;2023-05-10T02:20:09;24.98;;;11.27;;
6406;SDS011;3236;51.022;6.818;2023-05-10T02:22:37;27.95;;;10.88;;
6406;SDS011;3236;51.022;6.818;2023-05-10T02:25:06;27.85;;;12.23;;
6406;SDS011;3236;51.022;6.818;2023-05-10T02:27:35;23.65;;;10.50;;
6406;SDS011;3236;51.022;6.818;2023-05-10T02:30:04;23.50;;;10.90;;
6406;SDS011;3236;51.022;6.818;2023-05-10T02:32:33;20.58;;;10.00;;
6406;SDS011;3236;51.022;6.818;2023-05-10T02:35:03;21.35;;;10.73;;
6406;SDS011;3236;51.022;6.818;2023-05-10T02:37:31;33.17;;;10.95;;
6406;SDS011;3236;51.022;6.818;2023-05-10T02:39:59;23.40;;;11.02;;
6406;SDS011;3236;51.022;6.818;2023-05-10T02:42:29;20.85;;;10.35;;
6406;SDS011;3236;51.022;6.818;2023-05-10T02:45:00;25.92;;;10.68;;
6406;SDS011;3236;51.022;6.818;2023-05-10T02:47:30;29.60;;;10.65;;
6406;SDS011;3236;51.022;6.818;2023-05-10T02:50:00;27.58;;;10.50;;
6406;SDS011;3236;51.022;6.818;2023-05-10T02:55:03;24.88;;;11.27;;
6406;SDS011;3236;51.022;6.818;2023-05-10T02:57:33;25.83;;;11.32;;
6406;SDS011;3236;51.022;6.818;2023-05-10T03:00:02;27.30;;;10.93;;
6406;SDS011;3236;51.022;6.818;2023-05-10T03:02:30;30.55;;;12.75;;
6406;SDS011;3236;51.022;6.818;2023-05-10T03:05:00;36.00;;;12.95;;
6406;SDS011;3236;51.022;6.818;2023-05-10T03:07:29;34.67;;;13.52;;
6406;SDS011;3236;51.022;6.818;2023-05-10T03:09:56;29.92;;;12.05;;
6406;SDS011;3236;51.022;6.818;2023-05-10T03:12:27;35.38;;;11.77;;
6406;SDS011;3236;51.022;6.818;2023-05-10T03:15:03;29.73;;;12.63;;
6406;SDS011;3236;51.022;6.818;2023-05-10T03:17:41;33.35;;;12.10;;
6406;SDS011;3236;51.022;6.818;2023-05-10T03:20:16;35.15;;;12.88;;
6406;SDS011;3236;51.022;6.818;2023-05-10T03:22:53;33.63;;;13.38;;
6406;SDS011;3236;51.022;6.818;2023-05-10T03:25:24;34.10;;;13.68;;
6406;SDS011;3236;51.022;6.818;2023-05-10T03:27:53;36.10;;;13.23;;
6406;SDS011;3236;51.022;6.818;2023-05-10T03:30:20;37.13;;;13.30;;
6406;SDS011;3236;51.022;6.818;2023-05-10T03:32:48;37.17;;;13.90;;
6406;SDS011;3236;51.022;6.818;2023-05-10T03:35:20;39.88;;;14.05;;
6406;SDS011;3236;51.022;6.818;2023-05-10T03:37:47;42.17;;;15.18;;
6406;SDS011;3236;51.022;6.818;2023-05-10T03:40:16;36.97;;;13.85;;
6406;SDS011;3236;51.022;6.818;2023-05-10T03:42:43;40.40;;;13.63;;
6406;SDS011;3236;51.022;6.818;2023-05-10T03:45:10;48.70;;;15.95;;
6406;SDS011;3236;51.022;6.818;2023-05-10T03:47:37;40.03;;;14.25;;
6406;SDS011;3236;51.022;6.818;2023-05-10T03:50:04;45.47;;;15.98;;
6406;SDS011;3236;51.022;6.818;2023-05-10T03:52:33;58.05;;;20.20;;
6406;SDS011;3236;51.022;6.818;2023-05-10T03:55:01;65.15;;;22.90;;
6406;SDS011;3236;51.022;6.818;2023-05-10T03:57:30;61.53;;;21.40;;
6406;SDS011;3236;51.022;6.818;2023-05-10T03:59:57;68.93;;;23.10;;
6406;SDS011;3236;51.022;6.818;2023-05-10T04:02:24;64.80;;;23.58;;
6406;SDS011;3236;51.022;6.818;2023-05-10T04:04:51;65.22;;;23.02;;
6406;SDS011;3236;51.022;6.818;2023-05-10T04:07:18;57.30;;;21.25;;
6406;SDS011;3236;51.022;6.818;2023-05-10T04:09:45;61.13;;;22.27;;
6406;SDS011;3236;51.022;6.818;2023-05-10T04:12:13;63.47;;;20.88;;
6406;SDS011;3236;51.022;6.818;2023-05-10T04:14:41;55.17;;;19.50;;
6406;SDS011;3236;51.022;6.818;2023-05-10T04:17:08;50.92;;;19.98;;
6406;SDS011;3236;51.022;6.818;2023-05-10T04:19:35;51.90;;;19.95;;
6406;SDS011;3236;51.022;6.818;2023-05-10T04:22:02;50.25;;;20.67;;
6406;SDS011;3236;51.022;6.818;2023-05-10T04:24:29;57.55;;;20.92;;
6406;SDS011;3236;51.022;6.818;2023-05-10T04:26:56;61.67;;;20.65;;
6406;SDS011;3236;51.022;6.818;2023-05-10T04:29:23;53.13;;;19.98;;
6406;SDS011;3236;51.022;6.818;2023-05-10T04:31:52;53.08;;;20.27;;
6406;SDS011;3236;51.022;6.818;2023-05-10T04:34:20;50.92;;;21.15;;
6406;SDS011;3236;51.022;6.818;2023-05-10T04:36:47;49.60;;;20.15;;
6406;SDS011;3236;51.022;6.818;2023-05-10T04:39:14;47.45;;;20.60;;
6406;SDS011;3236;51.022;6.818;2023-05-10T04:41:44;55.63;;;20.17;;
6406;SDS011;3236;51.022;6.818;2023-05-10T04:44:11;47.10;;;20.33;;
6406;SDS011;3236;51.022;6.818;2023-05-10T04:46:38;51.28;;;20.35;;
6406;SDS011;3236;51.022;6.818;2023-05-10T04:49:06;48.67;;;19.83;;
6406;SDS011;3236;51.022;6.818;2023-05-10T04:51:36;53.47;;;20.27;;
6406;SDS011;3236;51.022;6.818;2023-05-10T04:54:03;41.28;;;19.98;;
6406;SDS011;3236;51.022;6.818;2023-05-10T04:56:30;43.88;;;19.17;;
6406;SDS011;3236;51.022;6.818;2023-05-10T04:58:57;51.60;;;20.88;;
6406;SDS011;3236;51.022;6.818;2023-05-10T05:01:24;41.08;;;18.65;;
6406;SDS011;3236;51.022;6.818;2023-05-10T05:03:52;43.50;;;19.40;;
6406;SDS011;3236;51.022;6.818;2023-05-10T05:06:20;41.35;;;18.75;;
6406;SDS011;3236;51.022;6.818;2023-05-10T05:08:47;38.63;;;17.30;;
6406;SDS011;3236;51.022;6.818;2023-05-10T05:11:18;44.00;;;18.45;;
6406;SDS011;3236;51.022;6.818;2023-05-10T05:13:46;42.10;;;19.60;;
6406;SDS011;3236;51.022;6.818;2023-05-10T05:16:13;32.95;;;15.88;;
6406;SDS011;3236;51.022;6.818;2023-05-10T05:18:40;36.08;;;16.88;;
6406;SDS011;3236;51.022;6.818;2023-05-10T05:21:14;42.08;;;16.55;;
6406;SDS011;3236;51.022;6.818;2023-05-10T05:23:43;35.72;;;15.52;;
6406;SDS011;3236;51.022;6.818;2023-05-10T05:26:10;34.90;;;14.93;;
6406;SDS011;3236;51.022;6.818;2023-05-10T05:28:37;34.95;;;15.07;;
6406;SDS011;3236;51.022;6.818;2023-05-10T05:31:04;34.72;;;16.20;;
6406;SDS011;3236;51.022;6.818;2023-05-10T05:33:35;43.50;;;16.20;;
6406;SDS011;3236;51.022;6.818;2023-05-10T05:36:04;39.65;;;14.90;;
6406;SDS011;3236;51.022;6.818;2023-05-10T05:38:32;34.55;;;17.23;;
6406;SDS011;3236;51.022;6.818;2023-05-10T05:41:00;36.95;;;14.40;;
6406;SDS011;3236;51.022;6.818;2023-05-10T05:43:28;37.42;;;15.05;;
6406;SDS011;3236;51.022;6.818;2023-05-10T05:45:55;33.90;;;16.10;;
6406;SDS011;3236;51.022;6.818;2023-05-10T05:48:23;45.47;;;16.48;;
6406;SDS011;3236;51.022;6.818;2023-05-10T05:50:50;35.28;;;16.02;;
6406;SDS011;3236;51.022;6.818;2023-05-10T05:53:21;42.90;;;15.68;;
6406;SDS011;3236;51.022;6.818;2023-05-10T05:55:52;43.17;;;17.52;;
6406;SDS011;3236;51.022;6.818;2023-05-10T05:58:25;37.28;;;16.33;;
6406;SDS011;3236;51.022;6.818;2023-05-10T06:03:20;30.30;;;14.45;;
6406;SDS011;3236;51.022;6.818;2023-05-10T06:05:47;41.15;;;14.30;;
6406;SDS011;3236;51.022;6.818;2023-05-10T06:08:14;33.10;;;13.30;;
6406;SDS011;3236;51.022;6.818;2023-05-10T06:10:41;29.10;;;11.63;;
6406;SDS011;3236;51.022;6.818;2023-05-10T06:13:10;36.40;;;14.77;;
6406;SDS011;3236;51.022;6.818;2023-05-10T06:15:39;33.15;;;14.73;;
6406;SDS011;3236;51.022;6.818;2023-05-10T06:18:06;35.05;;;14.68;;
6406;SDS011;3236;51.022;6.818;2023-05-10T06:20:35;35.97;;;15.20;;
6406;SDS011;3236;51.022;6.818;2023-05-10T06:23:02;32.45;;;14.90;;
6406;SDS011;3236;51.022;6.818;2023-05-10T06:25:29;35.20;;;16.05;;
6406;SDS011;3236;51.022;6.818;2023-05-10T06:27:56;42.47;;;15.32;;
6406;SDS011;3236;51.022;6.818;2023-05-10T06:30:24;41.03;;;17.05;;
6406;SDS011;3236;51.022;6.818;2023-05-10T06:32:54;35.60;;;15.82;;
6406;SDS011;3236;51.022;6.818;2023-05-10T06:35:21;39.50;;;15.88;;
6406;SDS011;3236;51.022;6.818;2023-05-10T06:37:49;43.85;;;16.35;;
6406;SDS011;3236;51.022;6.818;2023-05-10T06:40:17;51.75;;;20.50;;
6406;SDS011;3236;51.022;6.818;2023-05-10T06:42:44;49.20;;;16.73;;
6406;SDS011;3236;51.022;6.818;2023-05-10T06:45:12;41.38;;;18.58;;
6406;SDS011;3236;51.022;6.818;2023-05-10T06:47:42;44.28;;;17.63;;
6406;SDS011;3236;51.022;6.818;2023-05-10T06:50:13;45.50;;;18.38;;
6406;SDS011;3236;51.022;6.818;2023-05-10T06:52:40;41.83;;;16.85;;
6406;SDS011;3236;51.022;6.818;2023-05-10T06:55:09;46.80;;;18.83;;
6406;SDS011;3236;51.022;6.818;2023-05-10T06:57:36;47.63;;;18.45;;
6406;SDS011;3236;51.022;6.818;2023-05-10T07:00:07;47.67;;;19.90;;
6406;SDS011;3236;51.022;6.818;2023-05-10T07:02:36;39.28;;;16.83;;
6406;SDS011;3236;51.022;6.818;2023-05-10T07:05:03;50.17;;;18.67;;
6406;SDS011;3236;51.022;6.818;2023-05-10T07:07:32;48.08;;;18.08;;
6406;SDS011;3236;51.022;6.818;2023-05-10T07:09:59;46.85;;;17.40;;
6406;SDS011;3236;51.022;6.818;2023-05-10T07:12:27;49.63;;;17.50;;
6406;SDS011;3236;51.022;6.818;2023-05-10T07:14:55;48.50;;;18.35;;
6406;SDS011;3236;51.022;6.818;2023-05-10T07:17:23;54.75;;;18.70;;
6406;SDS011;3236;51.022;6.818;2023-05-10T07:19:50;42.45;;;16.83;;
6406;SDS011;3236;51.022;6.818;2023-05-10T07:22:17;47.80;;;19.48;;
6406;SDS011;3236;51.022;6.818;2023-05-10T07:24:45;49.92;;;20.38;;
6406;SDS011;3236;51.022;6.818;2023-05-10T07:27:13;51.42;;;19.00;;
6406;SDS011;3236;51.022;6.818;2023-05-10T07:29:44;49.65;;;19.17;;
6406;SDS011;3236;51.022;6.818;2023-05-10T07:32:12;45.80;;;16.77;;
6406;SDS011;3236;51.022;6.818;2023-05-10T07:34:39;47.30;;;17.35;;
6406;SDS011;3236;51.022;6.818;2023-05-10T07:37:06;38.53;;;16.88;;
6406;SDS011;3236;51.022;6.818;2023-05-10T07:39:33;40.22;;;17.05;;
6406;SDS011;3236;51.022;6.818;2023-05-10T07:42:03;44.50;;;17.17;;
6406;SDS011;3236;51.022;6.818;2023-05-10T07:44:32;39.38;;;16.38;;
6406;SDS011;3236;51.022;6.818;2023-05-10T07:47:02;42.15;;;16.83;;
6406;SDS011;3236;51.022;6.818;2023-05-10T07:49:29;41.53;;;16.75;;
6406;SDS011;3236;51.022;6.818;2023-05-10T07:51:56;36.60;;;15.25;;
6406;SDS011;3236;51.022;6.818;2023-05-10T07:54:25;33.70;;;15.07;;
6406;SDS011;3236;51.022;6.818;2023-05-10T07:56:52;34.25;;;13.98;;
6406;SDS011;3236;51.022;6.818;2023-05-10T07:59:21;34.72;;;15.88;;
6406;SDS011;3236;51.022;6.818;2023-05-10T08:01:48;31.13;;;15.07;;
6406;SDS011;3236;51.022;6.818;2023-05-10T08:04:15;38.45;;;14.60;;
6406;SDS011;3236;51.022;6.818;2023-05-10T08:06:42;32.10;;;14.52;;
6406;SDS011;3236;51.022;6.818;2023-05-10T08:09:09;25.02;;;13.18;;
6406;SDS011;3236;51.022;6.818;2023-05-10T08:11:37;32.30;;;14.82;;
6406;SDS011;3236;51.022;6.818;2023-05-10T08:14:09;29.55;;;13.57;;
6406;SDS011;3236;51.022;6.818;2023-05-10T08:19:04;31.77;;;13.85;;
6406;SDS011;3236;51.022;6.818;2023-05-10T08:21:33;36.38;;;15.70;;
6406;SDS011;3236;51.022;6.818;2023-05-10T08:24:02;33.20;;;15.75;;
6406;SDS011;3236;51.022;6.818;2023-05-10T08:26:30;33.45;;;16.00;;
6406;SDS011;3236;51.022;6.818;2023-05-10T08:28:58;34.25;;;16.17;;
6406;SDS011;3236;51.022;6.818;2023-05-10T08:31:30;40.80;;;17.13;;
6406;SDS011;3236;51.022;6.818;2023-05-10T08:34:02;37.75;;;17.60;;
6406;SDS011;3236;51.022;6.818;2023-05-10T08:39:00;38.38;;;16.13;;
6406;SDS011;3236;51.022;6.818;2023-05-10T08:41:27;39.10;;;17.25;;
6406;SDS011;3236;51.022;6.818;2023-05-10T08:43:55;37.20;;;15.48;;
6406;SDS011;3236;51.022;6.818;2023-05-10T08:46:22;36.28;;;17.15;;
6406;SDS011;3236;51.022;6.818;2023-05-10T08:48:50;40.35;;;17.42;;
6406;SDS011;3236;51.022;6.818;2023-05-10T08:51:19;47.53;;;19.98;;
6406;SDS011;3236;51.022;6.818;2023-05-10T08:53:51;52.55;;;18.67;;
6406;SDS011;3236;51.022;6.818;2023-05-10T08:56:19;51.35;;;20.60;;
6406;SDS011;3236;51.022;6.818;2023-05-10T08:58:46;54.17;;;19.90;;
6406;SDS011;3236;51.022;6.818;2023-05-10T09:01:13;61.28;;;21.75;;
6406;SDS011;3236;51.022;6.818;2023-05-10T09:03:45;51.63;;;20.92;;
6406;SDS011;3236;51.022;6.818;2023-05-10T09:06:14;50.30;;;19.50;;
6406;SDS011;3236;51.022;6.818;2023-05-10T09:08:42;63.60;;;22.63;;
6406;SDS011;3236;51.022;6.818;2023-05-10T09:11:11;52.05;;;20.85;;
6406;SDS011;3236;51.022;6.818;2023-05-10T09:13:38;52.25;;;21.55;;
6406;SDS011;3236;51.022;6.818;2023-05-10T09:16:06;55.20;;;22.48;;
6406;SDS011;3236;51.022;6.818;2023-05-10T09:18:33;56.03;;;22.02;;
6406;SDS011;3236;51.022;6.818;2023-05-10T09:21:00;48.05;;;19.17;;
6406;SDS011;3236;51.022;6.818;2023-05-10T09:23:28;48.15;;;18.65;;
6406;SDS011;3236;51.022;6.818;2023-05-10T09:26:05;44.80;;;19.38;;
6406;SDS011;3236;51.022;6.818;2023-05-10T09:28:33;45.92;;;18.65;;
6406;SDS011;3236;51.022;6.818;2023-05-10T09:31:00;50.78;;;20.77;;
6406;SDS011;3236;51.022;6.818;2023-05-10T09:33:27;41.75;;;19.35;;
6406;SDS011;3236;51.022;6.818;2023-05-10T09:35:54;44.92;;;18.95;;
6406;SDS011;3236;51.022;6.818;2023-05-10T09:38:36;32.28;;;16.73;;
6406;SDS011;3236;51.022;6.818;2023-05-10T09:41:16;36.78;;;16.55;;
6406;SDS011;3236;51.022;6.818;2023-05-10T09:43:45;35.13;;;16.20;;
6406;SDS011;3236;51.022;6.818;2023-05-10T09:46:12;35.13;;;16.48;;
6406;SDS011;3236;51.022;6.818;2023-05-10T09:48:40;33.45;;;15.20;;
6406;SDS011;3236;51.022;6.818;2023-05-10T09:51:10;29.50;;;14.48;;
6406;SDS011;3236;51.022;6.818;2023-05-10T09:53:37;33.30;;;14.80;;
6406;SDS011;3236;51.022;6.818;2023-05-10T09:56:04;28.35;;;12.52;;
6406;SDS011;3236;51.022;6.818;2023-05-10T09:58:32;24.85;;;12.20;;
6406;SDS011;3236;51.022;6.818;2023-05-10T10:01:03;30.27;;;13.88;;
6406;SDS011;3236;51.022;6.818;2023-05-10T10:03:30;30.13;;;15.15;;
6406;SDS011;3236;51.022;6.818;2023-05-10T10:05:57;27.33;;;14.73;;
6406;SDS011;3236;51.022;6.818;2023-05-10T10:08:24;28.17;;;14.30;;
6406;SDS011;3236;51.022;6.818;2023-05-10T10:10:52;27.42;;;14.70;;
6406;SDS011;3236;51.022;6.818;2023-05-10T10:13:19;27.63;;;13.65;;
6406;SDS011;3236;51.022;6.818;2023-05-10T10:15:47;26.70;;;13.82;;
6406;SDS011;3236;51.022;6.818;2023-05-10T10:18:16;24.20;;;13.02;;
6406;SDS011;3236;51.022;6.818;2023-05-10T10:20:48;29.15;;;14.10;;
6406;SDS011;3236;51.022;6.818;2023-05-10T10:23:25;24.98;;;12.70;;
6406;SDS011;3236;51.022;6.818;2023-05-10T10:25:53;26.45;;;11.68;;
6406;SDS011;3236;51.022;6.818;2023-05-10T10:28:24;24.60;;;10.88;;
6406;SDS011;3236;51.022;6.818;2023-05-10T10:31:01;24.35;;;12.88;;
6406;SDS011;3236;51.022;6.818;2023-05-10T10:33:42;24.20;;;11.25;;
6406;SDS011;3236;51.022;6.818;2023-05-10T10:36:25;22.77;;;10.60;;
6406;SDS011;3236;51.022;6.818;2023-05-10T10:38:56;20.10;;;10.65;;
6406;SDS011;3236;51.022;6.818;2023-05-10T10:41:29;20.45;;;10.30;;
6406;SDS011;3236;51.022;6.818;2023-05-10T10:47:01;16.23;;;8.38;;
6406;SDS011;3236;51.022;6.818;2023-05-10T10:49:32;15.30;;;8.20;;
6406;SDS011;3236;51.022;6.818;2023-05-10T10:54:52;15.93;;;8.48;;
6406;SDS011;3236;51.022;6.818;2023-05-10T10:57:22;14.63;;;7.68;;
6406;SDS011;3236;51.022;6.818;2023-05-10T10:59:51;16.00;;;8.00;;
6406;SDS011;3236;51.022;6.818;2023-05-10T11:02:36;17.17;;;8.77;;
6406;SDS011;3236;51.022;6.818;2023-05-10T11:05:23;11.73;;;7.85;;
6406;SDS011;3236;51.022;6.818;2023-05-10T11:07:52;14.27;;;7.50;;
6406;SDS011;3236;51.022;6.818;2023-05-10T11:10:21;15.18;;;7.95;;
6406;SDS011;3236;51.022;6.818;2023-05-10T11:12:52;10.57;;;6.97;;
6406;SDS011;3236;51.022;6.818;2023-05-10T11:17:56;11.93;;;7.03;;
6406;SDS011;3236;51.022;6.818;2023-05-10T11:20:23;10.50;;;6.35;;
6406;SDS011;3236;51.022;6.818;2023-05-10T11:22:58;12.57;;;7.10;;
6406;SDS011;3236;51.022;6.818;2023-05-10T11:25:44;11.45;;;6.80;;
6406;SDS011;3236;51.022;6.818;2023-05-10T11:28:13;11.45;;;6.05;;
6406;SDS011;3236;51.022;6.818;2023-05-10T11:30:43;10.27;;;6.27;;
6406;SDS011;3236;51.022;6.818;2023-05-10T11:33:16;10.27;;;6.50;;
6406;SDS011;3236;51.022;6.818;2023-05-10T11:35:44;9.23;;;4.97;;
6406;SDS011;3236;51.022;6.818;2023-05-10T11:38:15;7.30;;;4.15;;
6406;SDS011;3236;51.022;6.818;2023-05-10T11:40:42;5.28;;;3.72;;
6406;SDS011;3236;51.022;6.818;2023-05-10T11:43:09;5.50;;;3.83;;
6406;SDS011;3236;51.022;6.818;2023-05-10T11:45:40;8.93;;;4.95;;
6406;SDS011;3236;51.022;6.818;2023-05-10T11:48:08;8.27;;;4.40;;
6406;SDS011;3236;51.022;6.818;2023-05-10T11:50:37;7.90;;;4.57;;
6406;SDS011;3236;51.022;6.818;2023-05-10T11:53:04;9.95;;;4.35;;
6406;SDS011;3236;51.022;6.818;2023-05-10T11:55:33;5.22;;;3.05;;
6406;SDS011;3236;51.022;6.818;2023-05-10T11:58:00;2.33;;;1.88;;
6406;SDS011;3236;51.022;6.818;2023-05-10T12:00:28;5.85;;;2.50;;
6406;SDS011;3236;51.022;6.818;2023-05-10T12:02:56;4.82;;;3.28;;
6406;SDS011;3236;51.022;6.818;2023-05-10T12:05:24;5.90;;;3.30;;
6406;SDS011;3236;51.022;6.818;2023-05-10T12:07:53;5.07;;;2.97;;
6406;SDS011;3236;51.022;6.818;2023-05-10T12:10:36;5.10;;;2.88;;
6406;SDS011;3236;51.022;6.818;2023-05-10T12:13:03;2.65;;;2.15;;
6406;SDS011;3236;51.022;6.818;2023-05-10T12:15:32;2.25;;;1.63;;
6406;SDS011;3236;51.022;6.818;2023-05-10T12:17:59;2.95;;;1.77;;
6406;SDS011;3236;51.022;6.818;2023-05-10T12:20:27;2.90;;;2.30;;
6406;SDS011;3236;51.022;6.818;2023-05-10T12:22:57;2.78;;;2.00;;
6406;SDS011;3236;51.022;6.818;2023-05-10T12:25:29;2.00;;;1.42;;
6406;SDS011;3236;51.022;6.818;2023-05-10T12:27:58;3.03;;;2.27;;
6406;SDS011;3236;51.022;6.818;2023-05-10T12:30:27;4.15;;;2.67;;
6406;SDS011;3236;51.022;6.818;2023-05-10T12:32:59;5.57;;;3.22;;
6406;SDS011;3236;51.022;6.818;2023-05-10T12:35:29;3.28;;;2.97;;
6406;SDS011;3236;51.022;6.818;2023-05-10T12:38:01;3.60;;;2.80;;
6406;SDS011;3236;51.022;6.818;2023-05-10T12:40:52;5.22;;;2.83;;
6406;SDS011;3236;51.022;6.818;2023-05-10T12:43:19;5.63;;;2.50;;
6406;SDS011;3236;51.022;6.818;2023-05-10T12:45:52;7.32;;;3.33;;
6406;SDS011;3236;51.022;6.818;2023-05-10T12:48:19;3.90;;;2.42;;
6406;SDS011;3236;51.022;6.818;2023-05-10T12:50:46;3.17;;;2.70;;
6406;SDS011;3236;51.022;6.818;2023-05-10T12:53:16;2.72;;;2.15;;
6406;SDS011;3236;51.022;6.818;2023-05-10T12:55:43;6.35;;;3.72;;
6406;SDS011;3236;51.022;6.818;2023-05-10T12:58:10;7.03;;;3.63;;
6406;SDS011;3236;51.022;6.818;2023-05-10T13:00:37;6.53;;;3.28;;
6406;SDS011;3236;51.022;6.818;2023-05-10T13:03:06;5.85;;;3.50;;
6406;SDS011;3236;51.022;6.818;2023-05-10T13:05:33;7.30;;;4.18;;
6406;SDS011;3236;51.022;6.818;2023-05-10T13:08:00;6.22;;;3.17;;
6406;SDS011;3236;51.022;6.818;2023-05-10T13:10:30;6.05;;;3.35;;
6406;SDS011;3236;51.022;6.818;2023-05-10T13:12:57;4.85;;;2.97;;
6406;SDS011;3236;51.022;6.818;2023-05-10T13:15:25;4.18;;;2.80;;
6406;SDS011;3236;51.022;6.818;2023-05-10T13:17:53;4.38;;;2.78;;
6406;SDS011;3236;51.022;6.818;2023-05-10T13:20:20;7.40;;;3.70;;
6406;SDS011;3236;51.022;6.818;2023-05-10T13:22:47;4.10;;;3.00;;
6406;SDS011;3236;51.022;6.818;2023-05-10T13:25:14;7.40;;;2.97;;
6406;SDS011;3236;51.022;6.818;2023-05-10T13:27:43;3.75;;;2.67;;
6406;SDS011;3236;51.022;6.818;2023-05-10T13:30:10;4.85;;;2.70;;
6406;SDS011;3236;51.022;6.818;2023-05-10T13:32:40;3.15;;;2.30;;
6406;SDS011;3236;51.022;6.818;2023-05-10T13:35:15;2.72;;;2.05;;
6406;SDS011;3236;51.022;6.818;2023-05-10T13:37:47;4.32;;;2.17;;
6406;SDS011;3236;51.022;6.818;2023-05-10T13:40:14;3.78;;;2.20;;
6406;SDS011;3236;51.022;6.818;2023-05-10T13:42:43;3.60;;;2.75;;
6406;SDS011;3236;51.022;6.818;2023-05-10T13:45:10;2.90;;;1.95;;
6406;SDS011;3236;51.022;6.818;2023-05-10T13:47:38;2.50;;;1.85;;
6406;SDS011;3236;51.022;6.818;2023-05-10T13:50:06;1.67;;;1.50;;
6406;SDS011;3236;51.022;6.818;2023-05-10T13:52:33;1.30;;;1.20;;
6406;SDS011;3236;51.022;6.818;2023-05-10T13:55:00;1.92;;;1.60;;
6406;SDS011;3236;51.022;6.818;2023-05-10T13:57:27;2.25;;;1.70;;
6406;SDS011;3236;51.022;6.818;2023-05-10T14:03:18;2.15;;;1.67;;
6406;SDS011;3236;51.022;6.818;2023-05-10T14:05:45;3.00;;;1.67;;
6406;SDS011;3236;51.022;6.818;2023-05-10T14:08:12;3.58;;;1.98;;
6406;SDS011;3236;51.022;6.818;2023-05-10T14:10:39;2.00;;;1.77;;
6406;SDS011;3236;51.022;6.818;2023-05-10T14:13:08;2.55;;;1.58;;
6406;SDS011;3236;51.022;6.818;2023-05-10T14:15:36;2.20;;;1.88;;
6406;SDS011;3236;51.022;6.818;2023-05-10T14:18:03;2.40;;;1.33;;
6406;SDS011;3236;51.022;6.818;2023-05-10T14:20:33;2.28;;;1.85;;
6406;SDS011;3236;51.022;6.818;2023-05-10T14:23:00;7.10;;;4.28;;
6406;SDS011;3236;51.022;6.818;2023-05-10T14:25:27;5.93;;;4.10;;
6406;SDS011;3236;51.022;6.818;2023-05-10T14:27:54;5.97;;;3.50;;
6406;SDS011;3236;51.022;6.818;2023-05-10T14:30:21;6.85;;;4.15;;
6406;SDS011;3236;51.022;6.818;2023-05-10T14:32:48;7.93;;;4.28;;
6406;SDS011;3236;51.022;6.818;2023-05-10T14:35:16;4.82;;;2.97;;
6406;SDS011;3236;51.022;6.818;2023-05-10T14:37:44;5.22;;;3.78;;
6406;SDS011;3236;51.022;6.818;2023-05-10T14:40:14;6.55;;;3.53;;
6406;SDS011;3236;51.022;6.818;2023-05-10T14:42:42;3.08;;;1.80;;
6406;SDS011;3236;51.022;6.818;2023-05-10T14:45:09;2.45;;;1.63;;
6406;SDS011;3236;51.022;6.818;2023-05-10T14:47:37;2.13;;;1.90;;
6406;SDS011;3236;51.022;6.818;2023-05-10T14:50:05;2.40;;;1.90;;
6406;SDS011;3236;51.022;6.818;2023-05-10T14:52:32;2.60;;;1.65;;
6406;SDS011;3236;51.022;6.818;2023-05-10T14:55:01;2.35;;;1.80;;
6406;SDS011;3236;51.022;6.818;2023-05-10T14:57:28;3.15;;;1.95;;
6406;SDS011;3236;51.022;6.818;2023-05-10T14:59:55;2.30;;;1.60;;
6406;SDS011;3236;51.022;6.818;2023-05-10T15:02:22;2.85;;;2.00;;
6406;SDS011;3236;51.022;6.818;2023-05-10T15:04:49;4.95;;;2.00;;
6406;SDS011;3236;51.022;6.818;2023-05-10T15:07:25;2.38;;;1.80;;
6406;SDS011;3236;51.022;6.818;2023-05-10T15:09:52;3.53;;;1.90;;
6406;SDS011;3236;51.022;6.818;2023-05-10T15:12:20;3.88;;;1.98;;
6406;SDS011;3236;51.022;6.818;2023-05-10T15:14:47;4.07;;;2.10;;
6406;SDS011;3236;51.022;6.818;2023-05-10T15:17:14;3.50;;;2.20;;
6406;SDS011;3236;51.022;6.818;2023-05-10T15:19:42;3.03;;;2.35;;
6406;SDS011;3236;51.022;6.818;2023-05-10T15:22:09;2.63;;;1.90;;
6406;SDS011;3236;51.022;6.818;2023-05-10T15:24:37;2.63;;;1.50;;
6406;SDS011;3236;51.022;6.818;2023-05-10T15:27:03;2.25;;;1.90;;
6406;SDS011;3236;51.022;6.818;2023-05-10T15:29:32;3.67;;;2.42;;
6406;SDS011;3236;51.022;6.818;2023-05-10T15:31:59;3.05;;;1.90;;
6406;SDS011;3236;51.022;6.818;2023-05-10T15:34:34;3.08;;;2.17;;
6406;SDS011;3236;51.022;6.818;2023-05-10T15:37:02;3.45;;;2.42;;